Main page
METAR-TAF:

METAR-TAF

Airports :

Eleusina, Greece

latitude: 38-04N, longitude: 023-33E, elevation: 44 m

Current weather observation

The report was made 28 minutes ago, at 00:50 UTC
Wind 3 kt from variable directions
Temperature 9°C
Humidity 71%
Pressure 1009 hPa
Visibility 10 km or more
Few clouds at a height of 2500 ft

METAR: LGEL 310050Z VRB03KT 9999 FEW025 09/04 Q1009

Time: 04:18 (01:18 UTC)

Forecast

The report was made 2 hours and 18 minutes ago, at 23:00 UTC
Forecast valid from 31 at 00 UTC to 31 at 24 UTC
Wind 5 kt from variable directions
Visibility 10 km or more
Few clouds at a height of 2000 ft
Scattered clouds at a height of 7000 ft
Becoming
from 31 at 03 UTC to 31 at 05 UTC
Wind 14 kt from the North
Becoming
from 31 at 16 UTC to 31 at 18 UTC
Wind 5 kt from variable directions

TAF: LGEL 302300Z 3100/3124 VRB05KT 9999 FEW020 SCT070 BECMG 3103/3105 35014KT BECMG 3116/3118 VRB05KT

Weather observations and forecasts of more than 4000 airports (METAR and TAF reports).

The available stations are represented by yellow and red dots on the map.

Hover mouse over dot to see the name of the station.

Then click to see weather observations and forecasts.

To change the map : click on the green buttons with a black cross to zoom in, on the green button with a dash to zoom out, or on the green arrows for adjacent maps.


METAR-TAF: